createdAt,value
2023-03-25T00:19:21.859Z,50.55
2023-03-25T00:24:25.526Z,51.01
2023-03-25T00:29:29.235Z,51.30
2023-03-25T00:34:34.538Z,52.53
2023-03-25T00:39:38.434Z,51.68
2023-03-25T00:44:42.217Z,52.06
2023-03-25T00:49:47.488Z,52.97
2023-03-25T00:54:51.139Z,53.08
2023-03-25T00:59:54.780Z,53.56
2023-03-25T01:05:00.071Z,53.27
2023-03-25T01:10:04.154Z,52.58
2023-03-25T01:15:10.573Z,52.65
2023-03-25T01:20:15.909Z,52.95
2023-03-25T01:25:20.492Z,53.71
2023-03-25T01:30:24.120Z,53.74
2023-03-25T01:35:29.399Z,54.03
2023-03-25T01:40:33.116Z,54.74
2023-03-25T01:45:36.802Z,54.00
2023-03-25T01:50:45.778Z,55.51
2023-03-25T01:55:50.505Z,55.25
2023-03-25T02:00:55.655Z,55.77
2023-03-25T02:06:03.296Z,55.20
2023-03-25T02:11:07.942Z,55.78
2023-03-25T02:16:27.574Z,53.96
2023-03-25T02:22:10.026Z,52.84
2023-03-25T02:27:25.672Z,51.72
2023-03-25T02:32:47.815Z,51.47
2023-03-25T02:38:26.421Z,53.52
2023-03-25T02:43:33.394Z,53.54
2023-03-25T02:48:41.795Z,55.03
2023-03-25T02:53:49.922Z,55.76
2023-03-25T02:58:56.300Z,56.19
2023-03-25T03:03:59.921Z,56.99
2023-03-25T03:09:18.279Z,58.00
2023-03-25T03:14:44.376Z,59.48
2023-03-25T03:19:51.643Z,58.71
2023-03-25T03:25:02.781Z,59.83
2023-03-25T03:30:11.996Z,59.69
2023-03-25T03:35:20.355Z,59.46
2023-03-25T03:40:28.147Z,59.83
2023-03-25T03:45:37.012Z,60.31
2023-03-25T03:50:44.451Z,60.30
2023-03-25T03:55:53.504Z,60.54
2023-03-25T04:01:03.937Z,61.11
2023-03-25T04:06:14.616Z,60.96
2023-03-25T04:11:23.683Z,61.02
2023-03-25T04:16:27.424Z,61.10
2023-03-25T04:21:31.126Z,60.83
2023-03-25T04:26:36.596Z,61.96
2023-03-25T04:31:40.394Z,60.61
2023-03-25T04:36:44.088Z,60.39
2023-03-25T04:41:49.838Z,60.34
2023-03-25T04:46:53.917Z,59.83
2023-03-25T04:51:57.533Z,59.58
2023-03-25T04:57:02.846Z,59.45
2023-03-25T05:02:07.482Z,58.98
2023-03-25T05:07:11.098Z,58.97
2023-03-25T05:12:16.426Z,58.47
2023-03-25T05:17:20.034Z,58.62
2023-03-25T05:22:23.670Z,58.78
2023-03-25T05:27:29.333Z,58.61
2023-03-25T05:32:33.060Z,58.48
2023-03-25T05:37:36.799Z,59.45
2023-03-25T05:42:42.117Z,59.10
2023-03-25T05:47:45.844Z,58.93
2023-03-25T05:52:49.835Z,58.00
2023-03-25T05:57:55.116Z,58.57
2023-03-25T06:02:58.887Z,59.62
2023-03-25T06:08:02.595Z,59.44
2023-03-25T06:13:07.888Z,59.59
2023-03-25T06:18:11.585Z,59.68
2023-03-25T06:23:15.255Z,60.12
2023-03-25T06:28:20.903Z,59.63
2023-03-25T06:33:42.788Z,59.34
2023-03-25T06:38:48.263Z,59.22
2023-03-25T06:43:54.541Z,59.66
2023-03-25T06:48:57.387Z,58.55
2023-03-25T06:54:01.060Z,58.68
2023-03-25T06:59:06.642Z,58.68
2023-03-25T07:04:10.288Z,59.69
2023-03-25T07:09:13.972Z,59.39
2023-03-25T07:14:19.277Z,59.50
2023-03-25T07:19:23.036Z,59.09
2023-03-25T07:24:26.696Z,58.96
2023-03-25T07:29:31.982Z,59.21
2023-03-25T07:34:35.716Z,58.57
2023-03-25T07:39:39.321Z,58.13
2023-03-25T07:44:45.593Z,58.74
2023-03-25T07:49:48.493Z,58.75
2023-03-25T07:54:52.105Z,57.51
2023-03-25T07:59:57.409Z,57.40
2023-03-25T08:05:03.265Z,57.85
2023-03-25T08:10:09.371Z,57.62
2023-03-25T08:15:15.060Z,57.00
2023-03-25T08:20:18.813Z,57.92
2023-03-25T08:25:22.534Z,57.53
2023-03-25T08:30:27.897Z,58.07
2023-03-25T08:35:31.634Z,58.70
2023-03-25T08:40:35.876Z,58.08
2023-03-25T08:45:41.191Z,58.57
2023-03-25T08:50:45.015Z,59.44
2023-03-25T08:55:51.289Z,58.59
2023-03-25T09:00:58.328Z,58.05
2023-03-25T09:06:05.629Z,58.23
2023-03-25T09:11:09.265Z,58.01
2023-03-25T09:16:14.546Z,57.71
2023-03-25T09:21:18.188Z,57.61
2023-03-25T09:26:21.815Z,56.72
2023-03-25T09:31:27.400Z,56.04
2023-03-25T09:36:31.086Z,56.17
2023-03-25T09:42:02.863Z,55.53
2023-03-25T09:47:14.940Z,55.12
2023-03-25T09:52:24.798Z,55.91
2023-03-25T09:57:33.308Z,55.07
2023-03-25T10:02:43.612Z,54.95
2023-03-25T10:07:59.670Z,54.36
2023-03-25T10:13:13.871Z,55.95
2023-03-25T10:18:38.379Z,55.06
2023-03-25T10:23:47.254Z,55.32
2023-03-25T10:28:53.872Z,55.99
2023-03-25T10:34:03.254Z,54.57
2023-03-25T10:39:16.172Z,55.26
2023-03-25T10:44:21.855Z,54.44
2023-03-25T10:49:30.616Z,54.02
2023-03-25T10:54:40.162Z,54.21
2023-03-25T10:59:50.221Z,53.56
2023-03-25T11:04:59.291Z,53.07
2023-03-25T11:10:16.919Z,53.86
2023-03-25T11:15:23.221Z,53.49
2023-03-25T11:20:29.701Z,52.12
2023-03-25T11:25:37.879Z,53.85
2023-03-25T11:31:12.267Z,53.85
2023-03-25T11:36:27.958Z,53.51
2023-03-25T11:41:34.968Z,53.91
2023-03-25T11:46:43.860Z,53.10
2023-03-25T11:51:50.707Z,53.97
2023-03-25T11:56:56.711Z,53.86
2023-03-25T12:02:09.329Z,52.87
2023-03-25T12:07:19.831Z,52.81
2023-03-25T12:12:43.147Z,52.23
2023-03-25T12:17:57.204Z,51.69
2023-03-25T12:23:15.376Z,52.18
2023-03-25T12:29:09.266Z,52.15
2023-03-25T12:34:27.623Z,52.78
2023-03-25T12:39:48.595Z,51.49
2023-03-25T12:45:07.820Z,51.89
2023-03-25T12:50:25.635Z,52.62
2023-03-25T12:55:45.381Z,54.55
2023-03-25T13:00:56.794Z,54.46
2023-03-25T13:06:04.683Z,53.32
2023-03-25T13:11:16.010Z,53.00
2023-03-25T13:16:22.410Z,55.32
2023-03-25T13:21:28.005Z,55.05
2023-03-25T13:26:33.656Z,56.50
2023-03-25T13:31:39.832Z,54.29
2023-03-25T13:36:46.010Z,54.20
2023-03-25T13:41:56.060Z,53.81
2023-03-25T13:47:06.235Z,52.61
2023-03-25T13:52:10.298Z,53.08
2023-03-25T13:57:57.818Z,52.65
2023-03-25T14:03:32.273Z,51.75
2023-03-25T14:09:25.001Z,54.63
2023-03-25T14:14:29.887Z,52.74
2023-03-25T14:19:38.591Z,52.53
2023-03-25T14:24:42.443Z,52.47
2023-03-25T14:29:48.292Z,52.35
2023-03-25T14:34:53.694Z,51.90
2023-03-25T14:40:00.004Z,51.69
2023-03-25T14:45:38.751Z,49.86
2023-03-25T14:50:45.565Z,50.10
2023-03-25T14:55:49.343Z,51.60
2023-03-25T15:00:56.684Z,49.37
2023-03-25T15:06:02.162Z,47.61
2023-03-25T15:11:09.225Z,46.82
2023-03-25T15:16:20.158Z,45.14
2023-03-25T15:21:26.650Z,45.17
2023-03-25T15:26:31.854Z,43.58
2023-03-25T15:31:56.686Z,43.27
2023-03-25T15:37:39.344Z,42.41
2023-03-25T15:43:15.419Z,42.31
2023-03-25T15:48:55.205Z,40.63
2023-03-25T15:54:20.541Z,40.50
2023-03-25T15:59:33.289Z,40.66
2023-03-25T16:04:41.672Z,40.22
2023-03-25T16:09:49.187Z,41.37
2023-03-25T16:14:53.418Z,38.84
2023-03-25T16:19:58.156Z,38.80
2023-03-25T16:25:05.093Z,36.60
2023-03-25T16:30:21.100Z,37.52
2023-03-25T16:35:28.814Z,34.65
2023-03-25T16:40:37.982Z,34.75
2023-03-25T16:45:45.040Z,36.19
2023-03-25T16:50:49.687Z,35.81
2023-03-25T16:55:58.630Z,33.89
2023-03-25T17:01:03.967Z,34.34
2023-03-25T17:06:18.569Z,34.51
2023-03-25T17:11:26.915Z,33.47
2023-03-25T17:16:33.157Z,34.36
2023-03-25T17:21:37.334Z,32.89
2023-03-25T17:26:56.190Z,32.34
2023-03-25T17:32:01.123Z,31.70
2023-03-25T17:37:04.775Z,32.25
2023-03-25T17:42:20.998Z,31.78
2023-03-25T17:47:24.690Z,32.22
2023-03-25T17:52:30.732Z,31.01
2023-03-25T17:57:37.762Z,31.30
2023-03-25T18:02:40.665Z,28.07
2023-03-25T18:07:44.376Z,30.83
2023-03-25T18:12:49.673Z,29.24
2023-03-25T18:17:53.433Z,29.68
2023-03-25T18:22:57.388Z,28.68
2023-03-25T18:28:02.663Z,27.64
2023-03-25T18:33:06.349Z,29.68
2023-03-25T18:38:17.701Z,27.69
2023-03-25T18:43:23.337Z,27.34
2023-03-25T18:48:26.995Z,28.97
2023-03-25T18:53:31.132Z,27.72
2023-03-25T18:58:37.429Z,26.60
2023-03-25T19:03:41.163Z,27.44
2023-03-25T19:08:45.677Z,28.14
2023-03-25T19:13:51.426Z,27.04
2023-03-25T19:18:54.309Z,28.99
2023-03-25T19:23:57.931Z,29.40
2023-03-25T19:29:03.213Z,28.24
2023-03-25T19:34:06.842Z,27.79
2023-03-25T19:39:10.511Z,28.42
2023-03-25T19:44:15.838Z,27.85
2023-03-25T19:49:32.624Z,27.59
2023-03-25T19:54:42.805Z,27.95
2023-03-25T19:59:48.150Z,27.20
2023-03-25T20:04:53.011Z,27.17
2023-03-25T20:09:57.360Z,27.15
2023-03-25T20:15:04.895Z,25.77
2023-03-25T20:20:10.534Z,27.66
2023-03-25T20:25:14.713Z,27.51
2023-03-25T20:30:20.745Z,27.25
2023-03-25T20:35:24.454Z,27.81
2023-03-25T20:40:41.600Z,28.06
2023-03-25T20:45:49.186Z,26.68
2023-03-25T20:51:00.376Z,29.10
2023-03-25T20:56:05.100Z,28.76
2023-03-25T21:01:10.771Z,28.03
2023-03-25T21:11:24.995Z,29.80
2023-03-25T21:16:30.441Z,29.72
2023-03-25T21:21:34.849Z,29.09
2023-03-25T21:26:38.619Z,29.90
2023-03-25T21:31:44.021Z,31.37
2023-03-25T21:36:47.776Z,32.36
2023-03-25T21:41:51.888Z,32.87
2023-03-25T21:46:57.206Z,33.50
2023-03-25T21:52:00.996Z,33.23
2023-03-25T21:57:04.789Z,33.54
2023-03-25T22:02:11.277Z,34.54
2023-03-25T22:07:14.926Z,33.57
2023-03-25T22:12:18.601Z,34.83
2023-03-25T22:17:24.019Z,34.88
2023-03-25T22:22:27.723Z,36.03
2023-03-25T22:27:31.412Z,36.74
2023-03-25T22:32:37.490Z,37.17
2023-03-25T22:37:41.445Z,37.67
2023-03-25T22:42:45.100Z,36.73
2023-03-25T22:47:50.407Z,36.80
2023-03-25T22:52:54.099Z,37.70
2023-03-25T22:57:57.732Z,38.09
2023-03-25T23:03:03.114Z,38.92
2023-03-25T23:08:07.625Z,39.62
2023-03-25T23:13:11.327Z,39.18
2023-03-25T23:18:16.654Z,40.06
2023-03-25T23:23:20.472Z,39.68
2023-03-25T23:28:24.095Z,41.14
2023-03-25T23:33:29.441Z,41.97
2023-03-25T23:38:33.323Z,41.30
2023-03-25T23:43:37.781Z,42.16
2023-03-25T23:48:43.080Z,42.87
2023-03-25T23:53:47.866Z,42.22
2023-03-25T23:58:51.602Z,42.94
